Latest Weather Observations for Cooktown

IDQ60801

Issued at 9:32 pm EST Tuesday 19 September 2017 (issued every 30 minutes, with the page automatically refreshed every 10 minutes)

About weather observations | Map of weather stations | Latest weather observations for QLD | Other Formats
Station Details ID: 031209 Name: COOKTOWN AIRPORT Lat: -15.45 Lon: 145.19 Height: 4.8 m
Data from the previous 72 hours. | See also: Recent months at Cooktown
Date/Time
EST
Temp
°C
App
Temp
°C
Dew
Point
°C
Rel
Hum
%
Delta-T
°C
Wind Press
QNH
hPa
Press
MSL
hPa
Rain since
9am
mm
Dir  Spd
km/h
Gust
km/h
Spd
kts
Gust
kts
19/09:30pm 23.2 23.3 21.2 88 1.3 SE 22 30 12 16 1017.3 - 0.2
19/09:00pm 23.4 24.0 21.4 88 1.3 SE 20 32 11 17 1017.2 1017.0 0.2
19/08:30pm 23.3 23.6 21.6 90 1.1 SE 22 35 12 19 1016.8 - 0.2
19/08:17pm 23.3 24.1 21.8 91 1.0 SE 20 32 11 17 1016.7 - 0.2
19/08:00pm 23.6 24.2 22.1 91 1.0 SSE 22 33 12 18 1016.5 - 0.2
19/07:30pm 24.1 24.9 21.8 87 1.5 SE 20 33 11 18 1016.3 - 0.2
19/07:01pm 24.3 25.1 21.7 85 1.7 SE 20 26 11 14 1015.9 - 0.2
19/07:00pm 24.3 25.1 21.7 85 1.7 SE 20 26 11 14 1015.9 - 0.2
19/06:30pm 24.4 25.2 21.8 85 1.7 SE 20 35 11 19 1015.5 - 0.2
19/06:00pm 24.7 25.6 21.5 82 2.1 SE 19 32 10 17 1015.1 1015.1 0.2
19/05:30pm 24.9 25.5 21.4 81 2.3 SE 20 32 11 17 1015.0 - 0.2
19/05:00pm 25.5 25.6 21.1 76 2.9 SE 22 33 12 18 1014.8 - 0.2
19/04:30pm 25.3 25.9 21.0 77 2.8 ESE 19 33 10 18 1014.6 - 0.2
19/04:03pm 25.8 25.5 21.1 75 3.1 SE 24 37 13 20 1014.5 - 0.2
19/04:00pm 25.9 25.7 21.2 75 3.1 SE 24 37 13 20 1014.5 - 0.2
19/03:49pm 26.5 27.0 21.2 72 3.5 ESE 20 32 11 17 1014.6 - 0.2
19/03:30pm 26.2 26.6 21.0 73 3.4 SE 20 32 11 17 1014.6 - 0.2
19/03:00pm 26.6 26.6 21.0 71 3.7 SE 22 35 12 19 1014.6 1014.5 0.2
19/02:57pm 26.8 26.6 21.2 71 3.7 SE 24 33 13 18 1014.6 - 0.2
19/02:30pm 26.9 27.0 21.2 71 3.8 SE 22 33 12 18 1015.0 - 0.2
19/02:00pm 26.7 26.5 21.3 72 3.6 SE 24 35 13 19 1015.1 - 0.2
19/01:47pm 26.1 26.3 21.3 75 3.2 SE 22 37 12 20 1015.2 - 0.2
19/01:30pm 27.0 26.4 21.3 71 3.8 SE 26 35 14 19 1015.5 - 0.2
19/01:27pm 27.0 26.0 21.3 71 3.8 SE 28 41 15 22 1015.5 - 0.2
19/01:00pm 27.4 26.2 20.9 67 4.3 SE 28 41 15 22 1015.8 - 0.2
19/12:36pm 27.2 26.1 21.0 69 4.1 ESE 28 46 15 25 1016.1 - 0.0
19/12:30pm 27.9 27.4 21.4 67 4.3 ESE 26 43 14 23 1016.3 - 0.0
19/12:08pm 26.9 26.6 21.8 73 3.4 SE 26 37 14 20 1016.6 - 0.0
19/12:00pm 26.5 26.3 21.2 72 3.5 ESE 24 39 13 21 1016.7 1016.7 0.0
19/11:57am 26.9 26.5 21.6 72 3.5 ESE 26 39 14 21 1016.8 - 0.0
19/11:30am 26.1 26.7 22.1 78 2.7 ESE 22 35 12 19 1017.4 - 0.0
19/11:15am 25.5 26.5 22.2 82 2.2 SE 20 30 11 16 1017.7 - 0.0
19/11:14am 25.6 26.7 22.3 82 2.2 SE 20 30 11 16 1017.8 - 0.0
19/11:00am 25.2 26.4 22.2 83 2.0 SE 19 32 10 17 1017.9 - 0.0
19/10:28am 25.3 27.1 22.5 84 1.9 SE 17 32 9 17 1018.1 - 0.0
19/10:27am 25.2 27.0 22.5 85 1.8 SE 17 32 9 17 1018.2 - 0.0
19/10:10am 24.8 26.6 22.6 87 1.5 SE 17 26 9 14 1018.4 - 0.0
19/10:00am 24.7 26.3 22.1 85 1.7 SE 17 26 9 14 1018.5 - 0.0
19/09:35am 24.7 26.3 22.1 85 1.7 SE 17 26 9 14 1018.5 - 0.0
19/09:30am 24.6 26.1 22.0 85 1.7 SE 17 26 9 14 1018.5 - 0.0
19/09:02am 24.5 26.2 22.3 87 1.5 ESE 17 24 9 13 1018.6 - 0.0
19/09:00am 24.5 26.2 22.3 87 1.5 ESE 17 24 9 13 1018.5 1018.4 1.0
19/08:52am 24.4 26.2 22.5 89 1.3 SE 17 26 9 14 1018.5 - 1.0
19/08:30am 24.1 25.4 22.3 90 1.2 SE 19 30 10 16 1018.3 - 1.0
19/08:01am 24.0 26.1 22.5 91 1.0 ESE 15 20 8 11 1018.1 - 1.0
19/08:00am 23.9 26.1 22.6 92 0.9 ESE 15 20 8 11 1018.1 - 1.0
19/07:47am 23.8 25.8 22.3 91 1.0 SE 15 22 8 12 1017.9 - 1.0
19/07:30am 23.6 25.7 22.4 93 0.8 SE 15 19 8 10 1017.7 - 1.0
19/07:26am 23.6 25.7 22.4 93 0.8 SE 15 19 8 10 1017.7 - 1.0
19/07:09am 23.5 25.4 22.1 92 0.9 SE 15 24 8 13 1017.5 - 0.8
19/07:05am 23.6 25.5 22.1 91 1.0 SE 15 24 8 13 1017.5 - 0.8
19/07:00am 23.6 25.4 21.9 90 1.1 SE 15 24 8 13 1017.4 - 0.8
19/06:58am 23.5 25.8 22.1 92 0.9 SE 13 22 7 12 1017.4 - 0.8
19/06:43am 23.4 25.7 22.0 92 0.9 SE 13 20 7 11 1017.2 - 0.8
19/06:38am 23.4 25.7 22.0 92 0.9 ESE 13 20 7 11 1017.1 - 0.8
19/06:31am 23.4 25.3 22.0 92 0.9 ESE 15 20 8 11 1017.2 - 0.8
19/06:30am 23.4 25.3 22.0 92 0.9 ESE 15 20 8 11 1017.1 - 0.8
19/06:28am 23.5 25.4 22.0 91 1.0 SE 15 22 8 12 1017.1 - 0.6
19/06:22am 23.6 25.0 21.9 90 1.1 SE 17 24 9 13 1017.0 - 0.6
19/06:05am 23.7 25.6 22.0 90 1.1 SE 15 20 8 11 1016.8 - 0.6
19/06:00am 23.8 26.0 21.8 88 1.3 SE 13 20 7 11 1016.7 1016.5 0.2
19/05:43am 23.9 25.3 21.8 88 1.4 SE 17 28 9 15 1016.5 - 0.2
19/05:39am 23.9 25.0 21.3 85 1.7 ESE 17 28 9 15 1016.4 - 0.2
19/05:30am 24.0 26.0 21.6 86 1.6 SE 13 20 7 11 1016.3 - 0.2
19/05:28am 24.0 26.0 21.6 86 1.6 SE 13 20 7 11 1016.2 - 0.2
19/05:00am 24.0 24.9 21.6 86 1.6 SE 19 26 10 14 1015.8 - 0.2
19/04:45am 23.9 24.8 21.6 87 1.5 SE 19 28 10 15 1015.7 - 0.2
19/04:30am 23.9 25.1 21.5 86 1.6 SE 17 24 9 13 1015.7 - 0.2
19/04:00am 23.8 25.0 21.4 86 1.6 SE 17 26 9 14 1015.6 - 0.2
19/03:30am 23.8 25.0 21.4 86 1.6 ESE 17 28 9 15 1015.4 - 0.2
19/03:00am 23.7 24.9 21.4 87 1.5 ESE 17 24 9 13 1015.6 1015.6 0.2
19/02:30am 23.5 24.7 21.5 88 1.3 SE 17 24 9 13 1015.9 - 0.2
19/02:00am 23.5 25.2 21.7 90 1.2 ESE 15 22 8 12 1016.3 - 0.2
19/01:30am 23.4 25.1 21.7 90 1.1 SE 15 20 8 11 1016.6 - 0.2
19/01:00am 23.4 24.7 21.7 90 1.1 ESE 17 24 9 13 1016.9 - 0.2
19/12:30am 23.2 25.0 21.8 92 0.9 SE 15 24 8 13 1017.2 - 0.2
19/12:00am 23.1 24.4 21.7 92 0.9 SE 17 28 9 15 1017.4 1017.4 0.2
 
Date/Time
EST
Temp
°C
App
Temp
°C
Dew
Point
°C
Rel
Hum
%
Delta-T
°C
Wind Press
QNH
hPa
Press
MSL
hPa
Rain since
9am
mm
Dir  Spd
km/h
Gust
km/h
Spd
kts
Gust
kts
18/11:30pm 23.1 24.8 21.7 92 0.9 SE 15 20 8 11 1017.7 - 0.2
18/11:00pm 23.1 24.2 21.9 93 0.8 SE 19 26 10 14 1017.6 - 0.2
18/10:54pm 23.1 24.1 21.7 92 0.9 SE 19 30 10 16 1017.7 - 0.2
18/10:34pm 23.2 24.6 21.8 92 0.9 ESE 17 30 9 16 1017.8 - 0.2
18/10:30pm 23.2 24.9 21.7 91 1.0 ESE 15 30 8 16 1017.8 - 0.0
18/10:04pm 22.9 23.7 21.4 91 1.0 ESE 19 26 10 14 1018.0 - 0.0
18/09:42pm 23.1 23.9 21.7 92 0.9 SE 20 32 11 17 1018.1 - 0.0
18/09:30pm 23.2 24.2 21.7 91 1.0 SE 19 28 10 15 1018.0 - 0.0
18/09:29pm 23.2 24.2 21.7 91 1.0 SE 19 28 10 15 1018.1 - 0.0
18/09:10pm 23.1 23.8 21.6 91 1.0 SE 20 32 11 17 1018.0 - 0.0
18/09:00pm 23.1 23.3 21.4 90 1.1 SE 22 30 12 16 1017.9 1017.8 0.0
18/08:31pm 22.9 23.2 21.5 92 0.9 SE 22 33 12 18 1017.7 - 0.0
18/08:30pm 22.9 23.1 21.4 91 1.0 SE 22 33 12 18 1017.7 - 0.0
18/08:12pm 23.0 23.6 21.3 90 1.1 SE 20 32 11 17 1017.5 - 0.0
18/08:00pm 23.1 23.7 21.4 90 1.1 SE 20 32 11 17 1017.3 - 0.0
18/07:30pm 23.7 24.1 20.9 84 1.8 SE 20 33 11 18 1017.2 - 0.0
18/07:00pm 23.5 23.1 20.9 85 1.7 ESE 24 37 13 20 1017.0 - 0.0
18/06:30pm 23.6 23.9 20.7 84 1.9 ESE 20 33 11 18 1016.5 - 0.0
18/06:00pm 23.8 23.7 20.7 83 2.0 SE 22 35 12 19 1016.3 1016.2 0.0
18/05:30pm 23.9 24.9 21.0 84 1.9 SE 17 26 9 14 1016.1 - 0.0
18/05:00pm 24.2 24.7 20.8 81 2.2 SE 19 28 10 15 1015.8 - 0.0
18/04:30pm 24.8 24.6 20.5 77 2.8 SE 22 33 12 18 1015.9 - 0.0
18/04:00pm 24.6 24.0 20.6 78 2.6 SE 24 41 13 22 1016.0 - 0.0
18/03:43pm 24.6 24.3 20.3 77 2.8 SE 22 33 12 18 1016.0 - 0.0
18/03:30pm 24.9 24.8 19.6 72 3.4 SE 19 32 10 17 1016.1 - 0.0
18/03:00pm 25.2 24.3 19.9 72 3.4 SE 24 39 13 21 1016.0 1015.9 0.0
18/02:30pm 25.7 24.1 19.3 67 4.1 SE 26 41 14 22 1016.2 - 0.0
18/02:00pm 25.3 23.0 19.4 70 3.8 ESE 30 43 16 23 1016.3 - 0.0
18/01:30pm 26.1 24.3 19.6 67 4.2 ESE 28 48 15 26 1016.6 - 0.0
18/01:05pm 25.6 23.9 19.7 70 3.8 SE 28 46 15 25 1016.8 - 0.0
18/01:00pm 26.7 26.1 19.8 66 4.5 SE 22 33 12 18 1016.8 - 0.0
18/12:40pm 25.7 24.0 19.7 69 3.9 SE 28 48 15 26 1017.2 - 0.0
18/12:30pm 26.9 25.4 19.5 64 4.8 SE 26 43 14 23 1017.3 - 0.0
18/12:00pm 26.0 24.2 18.8 64 4.6 SE 26 46 14 25 1017.7 1017.7 0.0
18/11:30am 26.6 24.4 18.8 62 5.0 ESE 28 46 15 25 1018.1 - 0.0
18/11:00am 26.0 24.2 19.6 68 4.1 SE 28 46 15 25 1018.5 - 0.0
18/10:30am 26.0 24.5 20.2 70 3.8 ESE 28 43 15 23 1018.8 - 0.0
18/10:00am 25.2 23.3 19.4 70 3.7 ESE 28 44 15 24 1019.0 - 0.0
18/09:30am 25.2 23.8 19.6 71 3.6 ESE 26 41 14 22 1018.8 - 0.0
18/09:00am 25.3 23.5 19.5 70 3.7 ESE 28 44 15 24 1018.9 1018.7 0.0
18/08:30am 24.9 23.0 20.1 74 3.1 ESE 30 46 16 25 1018.6 - 0.0
18/08:06am 25.1 23.1 19.2 70 3.8 ESE 28 54 15 29 1018.3 - 0.0
18/08:00am 25.0 23.3 19.7 72 3.4 ESE 28 43 15 23 1018.2 - 0.0
18/07:30am 24.8 23.1 19.7 73 3.3 ESE 28 52 15 28 1017.8 - 0.0
18/07:28am 24.8 23.0 19.5 72 3.4 ESE 28 52 15 28 1017.8 - 0.0
18/07:00am 24.5 23.4 19.5 73 3.2 ESE 24 43 13 23 1017.5 - 0.0
18/06:30am 24.3 23.2 19.5 74 3.1 ESE 24 44 13 24 1017.2 - 0.0
18/06:00am 24.2 22.7 19.5 75 3.0 ESE 26 39 14 21 1016.7 1016.5 0.0
18/05:30am 24.2 22.6 19.2 73 3.2 ESE 26 39 14 21 1016.6 - 0.0
18/05:00am 24.1 21.9 18.6 71 3.5 ESE 28 41 15 22 1016.3 - 0.0
18/04:30am 24.1 23.2 19.9 77 2.7 SE 24 39 13 21 1016.3 - 0.0
18/04:17am 24.2 22.4 19.5 75 3.0 ESE 28 46 15 25 1016.2 - 0.0
18/04:00am 24.1 22.1 18.4 70 3.6 ESE 26 44 14 24 1016.3 - 0.0
18/03:30am 23.7 23.2 19.0 75 3.0 SE 20 33 11 18 1016.3 - 0.0
18/03:00am 23.4 22.5 19.0 76 2.8 SE 22 33 12 18 1016.6 1016.5 0.0
18/02:30am 23.6 23.3 19.5 78 2.6 SE 20 35 11 19 1016.6 - 0.0
18/02:00am 23.9 22.7 18.3 71 3.5 SE 22 35 12 19 1016.7 - 0.0
18/01:30am 23.8 22.6 18.4 72 3.4 ESE 22 39 12 21 1017.0 - 0.0
18/01:00am 23.7 23.1 19.8 79 2.5 SE 22 35 12 19 1017.5 - 0.0
18/12:30am 24.3 23.2 19.5 74 3.1 ESE 24 43 13 23 1017.7 - 0.0
18/12:00am 24.4 23.6 19.2 73 3.3 SE 22 32 12 17 1018.2 1018.2 0.0
 
Date/Time
EST
Temp
°C
App
Temp
°C
Dew
Point
°C
Rel
Hum
%
Delta-T
°C
Wind Press
QNH
hPa
Press
MSL
hPa
Rain since
9am
mm
Dir  Spd
km/h
Gust
km/h
Spd
kts
Gust
kts
17/11:30pm 24.3 23.4 19.1 73 3.3 ESE 22 37 12 20 1018.4 - 0.0
17/11:00pm 24.3 22.8 19.5 74 3.1 SE 26 46 14 25 1018.5 - 0.0
17/10:30pm 24.2 24.4 19.3 74 3.1 ESE 17 28 9 15 1018.6 - 0.0
17/10:00pm 24.2 23.7 19.0 72 3.3 ESE 20 39 11 21 1018.7 - 0.0
17/09:30pm 24.1 23.8 19.6 76 2.9 SE 20 35 11 19 1018.7 - 0.0
17/09:00pm 24.1 24.0 19.6 76 2.9 SE 19 37 10 20 1018.6 1018.5 0.0
17/08:30pm 24.1 23.6 18.7 72 3.4 SE 19 30 10 16 1018.3 - 0.0
17/08:00pm 24.1 23.4 19.4 75 3.0 SE 22 35 12 19 1018.0 - 0.0
17/07:30pm 24.0 23.8 19.3 75 3.0 SE 19 32 10 17 1017.7 - 0.0
17/07:00pm 23.8 22.9 19.1 75 3.0 SE 22 32 12 17 1017.2 - 0.0
17/06:30pm 24.0 23.8 18.6 72 3.4 SE 17 32 9 17 1016.9 - 0.0
17/06:00pm 24.4 23.4 18.9 71 3.5 SE 22 32 12 17 1016.5 1016.3 0.0
17/05:30pm 24.7 23.5 19.2 71 3.5 SE 24 43 13 23 1016.3 - 0.0
17/05:00pm 25.1 24.0 18.6 67 4.1 SE 22 37 12 20 1016.1 - 0.0
17/04:30pm 25.0 22.6 18.2 66 4.3 SE 28 43 15 23 1015.9 - 0.0
17/04:00pm 25.9 23.4 18.0 61 5.0 SE 28 39 15 21 1015.8 - 0.0
17/03:34pm 26.2 23.5 17.6 59 5.4 SE 28 46 15 25 1015.8 - 0.0
17/03:30pm 26.2 24.5 18.1 61 5.1 SE 24 43 13 23 1015.7 - 0.0
17/03:00pm 25.7 22.9 18.1 63 4.8 ESE 30 46 16 25 1015.8 1015.7 0.0
17/02:30pm 25.9 23.2 17.6 60 5.2 ESE 28 43 15 23 1015.8 - 0.0
17/02:09pm 26.1 23.4 18.4 62 4.9 ESE 30 48 16 26 1016.0 - 0.0
17/02:00pm 26.5 23.3 18.1 60 5.3 ESE 32 48 17 26 1016.1 - 0.0
17/01:36pm 26.8 23.6 18.1 59 5.5 SE 32 50 17 27 1016.2 - 0.0
17/01:30pm 27.3 24.0 18.0 56 5.9 ESE 32 48 17 26 1016.2 - 0.0
17/01:12pm 26.6 23.2 18.2 60 5.3 ESE 33 52 18 28 1016.4 - 0.0
17/01:00pm 28.1 24.6 18.7 56 6.0 ESE 35 52 19 28 1016.5 - 0.0
17/12:30pm 27.2 24.1 18.4 58 5.6 ESE 32 54 17 29 1017.0 - 0.0
17/12:08pm 27.0 24.6 18.3 59 5.5 SE 28 57 15 31 1017.2 - 0.0
17/12:00pm 27.2 24.0 18.6 59 5.5 ESE 33 44 18 24 1017.3 1017.3 0.0
17/11:30am 26.2 22.5 18.3 61 5.0 ESE 35 46 19 25 1017.8 - 0.0
17/11:17am 27.2 24.2 18.6 59 5.5 ESE 32 52 17 28 1018.0 - 0.0
17/11:00am 27.7 23.6 18.3 56 6.0 ESE 37 50 20 27 1018.2 - 0.0
17/10:30am 26.4 24.2 18.7 62 4.9 ESE 28 41 15 22 1018.6 - 0.0
17/10:07am 25.7 23.4 18.4 64 4.6 ESE 28 46 15 25 1018.6 - 0.0
17/10:00am 25.8 23.6 18.6 64 4.6 ESE 28 44 15 24 1018.7 - 0.0
17/09:30am 25.6 22.9 18.5 65 4.5 ESE 30 43 16 23 1018.6 - 0.0
17/09:19am 25.7 22.9 18.3 63 4.7 ESE 30 50 16 27 1018.6 - 0.0
17/09:00am 25.7 24.7 18.8 65 4.4 ESE 22 41 12 22 1018.4 1018.3 0.0
17/08:35am 25.5 23.1 18.2 64 4.6 ESE 28 46 15 25 1018.3 - 0.0
17/08:30am 25.5 24.0 18.6 65 4.4 SE 24 41 13 22 1018.3 - 0.0
17/08:00am 24.2 23.5 19.5 75 3.0 SE 22 35 12 19 1017.9 - 0.0
17/07:30am 24.0 23.7 19.5 76 2.9 SE 20 33 11 18 1017.5 - 0.0
17/07:00am 23.3 23.3 19.0 77 2.7 SE 17 30 9 16 1017.4 - 0.0
17/06:30am 22.8 22.4 19.0 79 2.4 SE 19 30 10 16 1017.1 - 0.0
17/06:00am 22.7 22.3 18.9 79 2.4 SE 19 26 10 14 1016.7 1016.5 0.0
17/05:30am 22.8 23.1 18.8 78 2.5 SE 15 20 8 11 1016.4 - 0.0
17/05:00am 22.7 22.6 18.7 78 2.5 SE 17 32 9 17 1016.0 - 0.0
17/04:30am 22.6 22.4 18.6 78 2.5 SE 17 28 9 15 1015.6 - 0.0
17/04:00am 22.7 22.2 18.7 78 2.5 SE 19 32 10 17 1015.5 - 0.0
17/03:30am 23.1 22.6 18.7 76 2.8 SE 19 30 10 16 1015.6 - 0.0
17/03:00am 23.3 22.5 18.5 74 3.0 SE 20 30 11 16 1015.9 1015.8 0.0
17/02:30am 23.5 22.5 17.9 71 3.5 SE 20 30 11 16 1016.0 - 0.0
17/02:00am 23.2 22.3 18.1 73 3.2 ESE 20 33 11 18 1016.3 - 0.0
17/01:30am 23.2 22.3 18.1 73 3.2 SE 20 35 11 19 1016.6 - 0.0
17/01:00am 23.3 22.2 17.7 71 3.5 SE 20 30 11 16 1016.9 - 0.0
17/12:30am 23.3 22.2 17.8 71 3.4 SE 20 33 11 18 1017.3 - 0.0
17/12:00am 23.6 22.5 17.8 70 3.6 SE 20 32 11 17 1017.7 1017.6 0.0
 
Date/Time
EST
Temp
°C
App
Temp
°C
Dew
Point
°C
Rel
Hum
%
Delta-T
°C
Wind Press
QNH
hPa
Press
MSL
hPa
Rain since
9am
mm
Dir  Spd
km/h
Gust
km/h
Spd
kts
Gust
kts
16/11:30pm 23.6 22.0 17.5 68 3.8 SE 22 35 12 19 1017.9 - 0.0
16/11:00pm 23.5 22.3 17.4 68 3.8 SE 20 32 11 17 1018.1 - 0.0
16/10:30pm 23.7 22.4 17.2 67 4.0 SE 20 39 11 21 1018.1 - 0.0
16/10:00pm 23.6 22.0 16.6 65 4.3 SE 20 35 11 19 1018.1 - 0.0

Other Formats:

Comma delimited format used in spreadsheet applications
http://www.bom.gov.au/fwo/IDQ60801/IDQ60801.95283.axf

JavaScript Object Notation format (JSON) in row-major order
http://www.bom.gov.au/fwo/IDQ60801/IDQ60801.95283.json